sensor_id;sensor_type;location;lat;lon;timestamp;pressure;altitude;pressure_sealevel;temperature;humidity
10606;BME280;5350;42.698;23.148;2022-10-03T00:02:51;93652.06;;;12.37;100.00
10606;BME280;5350;42.698;23.148;2022-10-03T00:05:26;93655.47;;;12.37;100.00
10606;BME280;5350;42.698;23.148;2022-10-03T00:08:01;93647.31;;;12.25;100.00
10606;BME280;5350;42.698;23.148;2022-10-03T00:10:33;93644.09;;;12.15;100.00
10606;BME280;5350;42.698;23.148;2022-10-03T00:13:08;93640.25;;;11.98;100.00
10606;BME280;5350;42.698;23.148;2022-10-03T00:15:38;93625.94;;;11.91;100.00
10606;BME280;5350;42.698;23.148;2022-10-03T00:18:11;93624.19;;;11.86;100.00
10606;BME280;5350;42.698;23.148;2022-10-03T00:20:45;93622.72;;;11.80;100.00
10606;BME280;5350;42.698;23.148;2022-10-03T00:23:15;93615.78;;;11.71;100.00
10606;BME280;5350;42.698;23.148;2022-10-03T00:25:46;93615.09;;;11.65;100.00
10606;BME280;5350;42.698;23.148;2022-10-03T00:28:19;93614.13;;;11.61;100.00
10606;BME280;5350;42.698;23.148;2022-10-03T00:30:55;93616.84;;;11.56;100.00
10606;BME280;5350;42.698;23.148;2022-10-03T00:33:26;93620.47;;;11.60;100.00
10606;BME280;5350;42.698;23.148;2022-10-03T00:36:00;93607.69;;;11.26;100.00
10606;BME280;5350;42.698;23.148;2022-10-03T00:41:17;93630.22;;;11.19;100.00
10606;BME280;5350;42.698;23.148;2022-10-03T00:46:53;93632.88;;;11.05;100.00
10606;BME280;5350;42.698;23.148;2022-10-03T00:52:20;93633.50;;;10.97;100.00
10606;BME280;5350;42.698;23.148;2022-10-03T00:54:53;93629.22;;;10.88;100.00
10606;BME280;5350;42.698;23.148;2022-10-03T00:57:29;93627.34;;;10.75;100.00
10606;BME280;5350;42.698;23.148;2022-10-03T01:00:14;93625.69;;;10.79;100.00
10606;BME280;5350;42.698;23.148;2022-10-03T01:02:46;93618.59;;;10.79;100.00
10606;BME280;5350;42.698;23.148;2022-10-03T01:05:16;93616.69;;;10.66;100.00
10606;BME280;5350;42.698;23.148;2022-10-03T01:07:54;93618.63;;;10.61;100.00
10606;BME280;5350;42.698;23.148;2022-10-03T01:10:25;93614.34;;;10.51;100.00
10606;BME280;5350;42.698;23.148;2022-10-03T01:13:00;93617.09;;;10.41;100.00
10606;BME280;5350;42.698;23.148;2022-10-03T01:15:36;93613.88;;;10.30;100.00
10606;BME280;5350;42.698;23.148;2022-10-03T01:18:09;93606.09;;;10.39;100.00
10606;BME280;5350;42.698;23.148;2022-10-03T01:20:41;93607.47;;;10.36;100.00
10606;BME280;5350;42.698;23.148;2022-10-03T01:25:58;93598.44;;;10.42;100.00
10606;BME280;5350;42.698;23.148;2022-10-03T01:28:38;93594.41;;;10.31;100.00
10606;BME280;5350;42.698;23.148;2022-10-03T01:31:25;93599.72;;;10.26;100.00
10606;BME280;5350;42.698;23.148;2022-10-03T01:33:56;93597.25;;;10.16;100.00
10606;BME280;5350;42.698;23.148;2022-10-03T01:36:27;93607.28;;;10.14;100.00
10606;BME280;5350;42.698;23.148;2022-10-03T01:38:59;93611.25;;;10.12;100.00
10606;BME280;5350;42.698;23.148;2022-10-03T01:41:27;93604.44;;;9.92;100.00
10606;BME280;5350;42.698;23.148;2022-10-03T01:44:00;93605.63;;;10.00;100.00
10606;BME280;5350;42.698;23.148;2022-10-03T01:46:33;93599.38;;;9.77;100.00
10606;BME280;5350;42.698;23.148;2022-10-03T01:49:05;93598.44;;;9.87;100.00
10606;BME280;5350;42.698;23.148;2022-10-03T01:51:40;93595.91;;;9.63;100.00
10606;BME280;5350;42.698;23.148;2022-10-03T01:54:11;93594.91;;;9.59;100.00
10606;BME280;5350;42.698;23.148;2022-10-03T01:56:42;93595.41;;;9.61;100.00
10606;BME280;5350;42.698;23.148;2022-10-03T01:59:13;93591.50;;;9.58;100.00
10606;BME280;5350;42.698;23.148;2022-10-03T02:01:45;93584.81;;;9.66;100.00
10606;BME280;5350;42.698;23.148;2022-10-03T02:04:14;93594.19;;;9.72;100.00
10606;BME280;5350;42.698;23.148;2022-10-03T02:06:48;93595.56;;;9.70;100.00
10606;BME280;5350;42.698;23.148;2022-10-03T02:09:19;93590.22;;;9.56;100.00
10606;BME280;5350;42.698;23.148;2022-10-03T02:11:56;93577.59;;;9.58;100.00
10606;BME280;5350;42.698;23.148;2022-10-03T02:14:29;93591.16;;;9.65;100.00
10606;BME280;5350;42.698;23.148;2022-10-03T02:17:00;93588.81;;;9.45;100.00
10606;BME280;5350;42.698;23.148;2022-10-03T02:19:33;93588.31;;;9.61;100.00
10606;BME280;5350;42.698;23.148;2022-10-03T02:22:02;93581.19;;;9.43;100.00
10606;BME280;5350;42.698;23.148;2022-10-03T02:24:33;93587.66;;;9.51;100.00
10606;BME280;5350;42.698;23.148;2022-10-03T02:27:12;93593.13;;;9.54;100.00
10606;BME280;5350;42.698;23.148;2022-10-03T02:29:54;93586.75;;;9.60;100.00
10606;BME280;5350;42.698;23.148;2022-10-03T02:32:35;93588.38;;;9.56;100.00
10606;BME280;5350;42.698;23.148;2022-10-03T02:37:58;93596.25;;;9.56;100.00
10606;BME280;5350;42.698;23.148;2022-10-03T02:40:39;93591.28;;;9.55;100.00
10606;BME280;5350;42.698;23.148;2022-10-03T02:43:17;93604.78;;;9.67;100.00
10606;BME280;5350;42.698;23.148;2022-10-03T02:54:19;93609.59;;;9.60;100.00
10606;BME280;5350;42.698;23.148;2022-10-03T02:57:08;93599.59;;;9.62;100.00
10606;BME280;5350;42.698;23.148;2022-10-03T03:02:33;93582.13;;;9.71;100.00
10606;BME280;5350;42.698;23.148;2022-10-03T03:05:17;93580.44;;;9.80;100.00
10606;BME280;5350;42.698;23.148;2022-10-03T03:07:56;93590.88;;;9.85;100.00
10606;BME280;5350;42.698;23.148;2022-10-03T03:10:35;93581.44;;;9.84;100.00
10606;BME280;5350;42.698;23.148;2022-10-03T03:13:25;93581.44;;;9.84;100.00
10606;BME280;5350;42.698;23.148;2022-10-03T03:18:48;93584.91;;;9.80;100.00
10606;BME280;5350;42.698;23.148;2022-10-03T03:21:19;93589.53;;;9.69;100.00
10606;BME280;5350;42.698;23.148;2022-10-03T03:26:48;93581.00;;;9.77;100.00
10606;BME280;5350;42.698;23.148;2022-10-03T03:29:24;93582.63;;;9.73;100.00
10606;BME280;5350;42.698;23.148;2022-10-03T03:31:55;93578.97;;;9.74;100.00
10606;BME280;5350;42.698;23.148;2022-10-03T03:34:28;93581.69;;;9.64;100.00
10606;BME280;5350;42.698;23.148;2022-10-03T03:36:58;93569.00;;;9.71;100.00
10606;BME280;5350;42.698;23.148;2022-10-03T03:39:38;93576.25;;;9.79;100.00
10606;BME280;5350;42.698;23.148;2022-10-03T03:42:15;93580.06;;;9.87;100.00
10606;BME280;5350;42.698;23.148;2022-10-03T03:44:52;93577.72;;;9.85;100.00
10606;BME280;5350;42.698;23.148;2022-10-03T03:47:29;93576.88;;;9.90;100.00
10606;BME280;5350;42.698;23.148;2022-10-03T03:50:09;93570.34;;;9.87;100.00
10606;BME280;5350;42.698;23.148;2022-10-03T03:52:50;93567.66;;;9.92;100.00
10606;BME280;5350;42.698;23.148;2022-10-03T03:55:34;93567.16;;;9.90;100.00
10606;BME280;5350;42.698;23.148;2022-10-03T03:58:08;93565.66;;;9.84;100.00
10606;BME280;5350;42.698;23.148;2022-10-03T04:00:44;93556.66;;;9.90;100.00
10606;BME280;5350;42.698;23.148;2022-10-03T04:03:24;93555.31;;;9.93;100.00
10606;BME280;5350;42.698;23.148;2022-10-03T04:08:40;93554.66;;;9.82;100.00
10606;BME280;5350;42.698;23.148;2022-10-03T04:11:14;93550.69;;;10.03;100.00
10606;BME280;5350;42.698;23.148;2022-10-03T04:13:49;93538.78;;;10.06;100.00
10606;BME280;5350;42.698;23.148;2022-10-03T04:16:22;93541.78;;;9.99;100.00
10606;BME280;5350;42.698;23.148;2022-10-03T04:19:06;93541.22;;;10.02;100.00
10606;BME280;5350;42.698;23.148;2022-10-03T04:21:55;93552.50;;;10.03;100.00
10606;BME280;5350;42.698;23.148;2022-10-03T04:24:30;93547.44;;;10.06;100.00
10606;BME280;5350;42.698;23.148;2022-10-03T04:27:04;93547.81;;;10.00;100.00
10606;BME280;5350;42.698;23.148;2022-10-03T04:29:47;93540.91;;;10.04;100.00
10606;BME280;5350;42.698;23.148;2022-10-03T04:32:26;93540.91;;;10.04;100.00
10606;BME280;5350;42.698;23.148;2022-10-03T04:35:10;93542.78;;;10.03;100.00
10606;BME280;5350;42.698;23.148;2022-10-03T04:37:42;93547.44;;;10.06;100.00
10606;BME280;5350;42.698;23.148;2022-10-03T04:40:16;93552.38;;;10.13;100.00
10606;BME280;5350;42.698;23.148;2022-10-03T04:42:48;93543.63;;;10.17;100.00
10606;BME280;5350;42.698;23.148;2022-10-03T04:45:24;93555.69;;;10.18;100.00
10606;BME280;5350;42.698;23.148;2022-10-03T04:47:58;93548.53;;;10.24;100.00
10606;BME280;5350;42.698;23.148;2022-10-03T04:50:30;93548.16;;;10.30;100.00
10606;BME280;5350;42.698;23.148;2022-10-03T04:53:04;93544.16;;;10.33;100.00
10606;BME280;5350;42.698;23.148;2022-10-03T04:55:38;93526.78;;;10.18;100.00
10606;BME280;5350;42.698;23.148;2022-10-03T04:58:14;93548.84;;;10.50;100.00
10606;BME280;5350;42.698;23.148;2022-10-03T05:00:49;93557.72;;;10.54;100.00
10606;BME280;5350;42.698;23.148;2022-10-03T05:03:20;93555.81;;;10.59;100.00
10606;BME280;5350;42.698;23.148;2022-10-03T05:05:53;93555.25;;;10.76;100.00
10606;BME280;5350;42.698;23.148;2022-10-03T05:08:26;93554.28;;;10.72;100.00
10606;BME280;5350;42.698;23.148;2022-10-03T05:10:56;93549.19;;;10.75;100.00
10606;BME280;5350;42.698;23.148;2022-10-03T05:13:33;93542.97;;;10.85;100.00
10606;BME280;5350;42.698;23.148;2022-10-03T05:16:06;93543.19;;;10.88;100.00
10606;BME280;5350;42.698;23.148;2022-10-03T05:18:37;93533.31;;;10.94;100.00
10606;BME280;5350;42.698;23.148;2022-10-03T05:21:08;93549.41;;;10.92;100.00
10606;BME280;5350;42.698;23.148;2022-10-03T05:23:41;93549.41;;;11.06;100.00
10606;BME280;5350;42.698;23.148;2022-10-03T05:26:14;93540.31;;;11.12;100.00
10606;BME280;5350;42.698;23.148;2022-10-03T05:28:45;93532.34;;;11.17;100.00
10606;BME280;5350;42.698;23.148;2022-10-03T05:31:22;93529.50;;;11.27;100.00
10606;BME280;5350;42.698;23.148;2022-10-03T05:33:53;93532.03;;;11.32;100.00
10606;BME280;5350;42.698;23.148;2022-10-03T05:36:30;93516.03;;;11.42;100.00
10606;BME280;5350;42.698;23.148;2022-10-03T05:41:49;93525.81;;;11.64;100.00
10606;BME280;5350;42.698;23.148;2022-10-03T05:44:18;93532.16;;;11.76;100.00
10606;BME280;5350;42.698;23.148;2022-10-03T05:46:52;93539.09;;;11.72;100.00
10606;BME280;5350;42.698;23.148;2022-10-03T05:49:27;93532.75;;;11.73;100.00
10606;BME280;5350;42.698;23.148;2022-10-03T05:52:03;93545.63;;;11.75;100.00
10606;BME280;5350;42.698;23.148;2022-10-03T05:54:46;93548.81;;;11.85;100.00
10606;BME280;5350;42.698;23.148;2022-10-03T05:57:34;93551.75;;;11.84;100.00
10606;BME280;5350;42.698;23.148;2022-10-03T06:00:04;93564.13;;;11.97;100.00
10606;BME280;5350;42.698;23.148;2022-10-03T06:02:50;93559.59;;;11.97;100.00
10606;BME280;5350;42.698;23.148;2022-10-03T06:05:32;93561.06;;;12.03;100.00
10606;BME280;5350;42.698;23.148;2022-10-03T06:10:57;93564.28;;;12.00;100.00
10606;BME280;5350;42.698;23.148;2022-10-03T06:13:32;93564.66;;;12.08;100.00
10606;BME280;5350;42.698;23.148;2022-10-03T06:16:07;93565.97;;;12.19;100.00
10606;BME280;5350;42.698;23.148;2022-10-03T06:18:58;93556.25;;;12.28;100.00
10606;BME280;5350;42.698;23.148;2022-10-03T06:29:45;93564.25;;;12.67;100.00
10606;BME280;5350;42.698;23.148;2022-10-03T06:37:50;93568.25;;;13.17;100.00
10606;BME280;5350;42.698;23.148;2022-10-03T06:40:39;93565.38;;;13.44;100.00
10606;BME280;5350;42.698;23.148;2022-10-03T06:43:15;93577.06;;;13.69;100.00
10606;BME280;5350;42.698;23.148;2022-10-03T06:46:05;93580.03;;;13.68;100.00
10606;BME280;5350;42.698;23.148;2022-10-03T06:51:36;93585.63;;;13.57;100.00
10606;BME280;5350;42.698;23.148;2022-10-03T06:57:03;93590.13;;;13.57;100.00
10606;BME280;5350;42.698;23.148;2022-10-03T06:59:47;93596.50;;;13.64;100.00
10606;BME280;5350;42.698;23.148;2022-10-03T07:02:29;93606.81;;;13.75;100.00
10606;BME280;5350;42.698;23.148;2022-10-03T07:05:04;93615.47;;;13.67;100.00
10606;BME280;5350;42.698;23.148;2022-10-03T07:07:51;93626.31;;;13.56;100.00
10606;BME280;5350;42.698;23.148;2022-10-03T07:10:29;93626.00;;;13.58;100.00
10606;BME280;5350;42.698;23.148;2022-10-03T07:16:15;93647.88;;;13.33;100.00
10606;BME280;5350;42.698;23.148;2022-10-03T07:18:56;93660.69;;;13.17;100.00
10606;BME280;5350;42.698;23.148;2022-10-03T07:24:27;93670.28;;;12.69;100.00
10606;BME280;5350;42.698;23.148;2022-10-03T07:27:11;93666.28;;;12.49;100.00
10606;BME280;5350;42.698;23.148;2022-10-03T07:29:51;93673.28;;;12.54;100.00
10606;BME280;5350;42.698;23.148;2022-10-03T07:32:28;93679.00;;;12.47;100.00
10606;BME280;5350;42.698;23.148;2022-10-03T07:38:02;93681.66;;;12.34;100.00
10606;BME280;5350;42.698;23.148;2022-10-03T07:40:57;93683.72;;;12.37;100.00
10606;BME280;5350;42.698;23.148;2022-10-03T07:43:36;93683.03;;;12.31;100.00
10606;BME280;5350;42.698;23.148;2022-10-03T07:48:55;93681.34;;;12.35;100.00
10606;BME280;5350;42.698;23.148;2022-10-03T07:51:31;93686.69;;;12.44;100.00
10606;BME280;5350;42.698;23.148;2022-10-03T07:56:53;93690.38;;;12.56;100.00
10606;BME280;5350;42.698;23.148;2022-10-03T07:59:30;93694.94;;;12.64;100.00
10606;BME280;5350;42.698;23.148;2022-10-03T08:02:11;93692.50;;;12.68;100.00
10606;BME280;5350;42.698;23.148;2022-10-03T08:07:30;93691.78;;;12.76;100.00
10606;BME280;5350;42.698;23.148;2022-10-03T08:10:08;93698.00;;;12.80;100.00
10606;BME280;5350;42.698;23.148;2022-10-03T08:12:48;93695.84;;;12.82;100.00
10606;BME280;5350;42.698;23.148;2022-10-03T08:15:21;93693.31;;;12.99;100.00
10606;BME280;5350;42.698;23.148;2022-10-03T08:17:59;93701.25;;;12.99;100.00
10606;BME280;5350;42.698;23.148;2022-10-03T08:20:40;93697.91;;;13.07;100.00
10606;BME280;5350;42.698;23.148;2022-10-03T08:25:53;93708.81;;;13.14;100.00
10606;BME280;5350;42.698;23.148;2022-10-03T08:28:32;93702.03;;;13.22;100.00
10606;BME280;5350;42.698;23.148;2022-10-03T08:31:09;93705.00;;;13.29;100.00
10606;BME280;5350;42.698;23.148;2022-10-03T08:33:47;93708.78;;;13.36;100.00
10606;BME280;5350;42.698;23.148;2022-10-03T08:39:10;93714.31;;;13.57;100.00
10606;BME280;5350;42.698;23.148;2022-10-03T08:42:00;93714.53;;;13.69;100.00
10606;BME280;5350;42.698;23.148;2022-10-03T08:47:34;93719.09;;;13.86;100.00
10606;BME280;5350;42.698;23.148;2022-10-03T08:50:25;93719.00;;;13.99;100.00
10606;BME280;5350;42.698;23.148;2022-10-03T08:53:05;93713.25;;;14.14;100.00
10606;BME280;5350;42.698;23.148;2022-10-03T08:58:33;93718.41;;;14.19;100.00
10606;BME280;5350;42.698;23.148;2022-10-03T09:04:10;93724.78;;;14.27;100.00
10606;BME280;5350;42.698;23.148;2022-10-03T09:06:55;93723.78;;;14.45;100.00
10606;BME280;5350;42.698;23.148;2022-10-03T09:09:30;93727.38;;;14.49;100.00
10606;BME280;5350;42.698;23.148;2022-10-03T09:12:11;93733.75;;;14.57;100.00
10606;BME280;5350;42.698;23.148;2022-10-03T09:14:55;93733.13;;;14.51;100.00
10606;BME280;5350;42.698;23.148;2022-10-03T09:17:29;93739.97;;;14.52;100.00
10606;BME280;5350;42.698;23.148;2022-10-03T09:20:09;93749.94;;;14.47;100.00
10606;BME280;5350;42.698;23.148;2022-10-03T09:22:46;93740.75;;;14.44;100.00
10606;BME280;5350;42.698;23.148;2022-10-03T09:25:20;93733.25;;;14.46;100.00
10606;BME280;5350;42.698;23.148;2022-10-03T09:27:57;93744.94;;;14.45;100.00
10606;BME280;5350;42.698;23.148;2022-10-03T09:30:46;93736.72;;;14.55;100.00
10606;BME280;5350;42.698;23.148;2022-10-03T09:52:52;93762.13;;;14.90;100.00
10606;BME280;5350;42.698;23.148;2022-10-03T09:55:32;93755.88;;;14.86;100.00
10606;BME280;5350;42.698;23.148;2022-10-03T09:58:11;93767.25;;;14.78;100.00
10606;BME280;5350;42.698;23.148;2022-10-03T10:00:51;93757.91;;;14.72;100.00
10606;BME280;5350;42.698;23.148;2022-10-03T10:03:29;93760.38;;;14.52;100.00
10606;BME280;5350;42.698;23.148;2022-10-03T10:06:04;93767.53;;;14.51;100.00
10606;BME280;5350;42.698;23.148;2022-10-03T10:11:20;93752.72;;;14.33;100.00
10606;BME280;5350;42.698;23.148;2022-10-03T10:16:59;93743.22;;;14.32;100.00
10606;BME280;5350;42.698;23.148;2022-10-03T10:19:41;93752.72;;;14.33;100.00
10606;BME280;5350;42.698;23.148;2022-10-03T10:25:06;93749.78;;;14.77;100.00
10606;BME280;5350;42.698;23.148;2022-10-03T10:30:55;93758.06;;;14.84;100.00
10606;BME280;5350;42.698;23.148;2022-10-03T10:33:38;93755.72;;;14.74;100.00
10606;BME280;5350;42.698;23.148;2022-10-03T10:50:44;93754.03;;;15.04;100.00
10606;BME280;5350;42.698;23.148;2022-10-03T11:07:14;93754.72;;;15.64;100.00
10606;BME280;5350;42.698;23.148;2022-10-03T11:15:37;93759.59;;;15.45;100.00
10606;BME280;5350;42.698;23.148;2022-10-03T11:18:27;93762.25;;;15.54;100.00
10606;BME280;5350;42.698;23.148;2022-10-03T11:21:17;93768.28;;;15.63;100.00
10606;BME280;5350;42.698;23.148;2022-10-03T11:24:01;93773.31;;;15.56;100.00
10606;BME280;5350;42.698;23.148;2022-10-03T11:29:49;93776.91;;;15.26;100.00
10606;BME280;5350;42.698;23.148;2022-10-03T11:35:26;93764.13;;;15.10;100.00
10606;BME280;5350;42.698;23.148;2022-10-03T11:37:57;93748.53;;;15.17;100.00
10606;BME280;5350;42.698;23.148;2022-10-03T11:40:34;93753.53;;;15.10;100.00
10606;BME280;5350;42.698;23.148;2022-10-03T11:45:50;93756.34;;;14.88;100.00
10606;BME280;5350;42.698;23.148;2022-10-03T11:48:24;93722.06;;;14.83;100.00
10606;BME280;5350;42.698;23.148;2022-10-03T11:50:56;93744.97;;;14.71;100.00
10606;BME280;5350;42.698;23.148;2022-10-03T11:53:32;93756.19;;;14.76;100.00
10606;BME280;5350;42.698;23.148;2022-10-03T11:56:07;93757.28;;;14.84;100.00
10606;BME280;5350;42.698;23.148;2022-10-03T11:58:44;93747.47;;;14.93;100.00
10606;BME280;5350;42.698;23.148;2022-10-03T12:01:17;93751.38;;;15.04;100.00
10606;BME280;5350;42.698;23.148;2022-10-03T12:03:50;93758.22;;;15.05;100.00
10606;BME280;5350;42.698;23.148;2022-10-03T12:06:23;93751.38;;;15.04;95.31
10606;BME280;5350;42.698;23.148;2022-10-03T12:09:13;93771.00;;;14.94;94.79
10606;BME280;5350;42.698;23.148;2022-10-03T12:11:44;93762.72;;;15.13;89.57
10606;BME280;5350;42.698;23.148;2022-10-03T12:14:19;93753.66;;;15.31;86.64
10606;BME280;5350;42.698;23.148;2022-10-03T12:16:53;93737.28;;;15.55;83.28
10606;BME280;5350;42.698;23.148;2022-10-03T12:19:25;93755.94;;;15.67;82.70
10606;BME280;5350;42.698;23.148;2022-10-03T12:21:55;93750.97;;;16.03;77.90
10606;BME280;5350;42.698;23.148;2022-10-03T12:24:24;93757.00;;;16.21;72.27
10606;BME280;5350;42.698;23.148;2022-10-03T12:26:54;93738.47;;;16.41;73.28
10606;BME280;5350;42.698;23.148;2022-10-03T12:29:24;93745.56;;;16.78;70.77
10606;BME280;5350;42.698;23.148;2022-10-03T12:34:37;93738.81;;;17.55;64.41
10606;BME280;5350;42.698;23.148;2022-10-03T12:37:10;93728.25;;;17.46;63.56
10606;BME280;5350;42.698;23.148;2022-10-03T12:39:47;93724.44;;;17.68;60.64
10606;BME280;5350;42.698;23.148;2022-10-03T12:42:25;93738.28;;;17.29;61.82
10606;BME280;5350;42.698;23.148;2022-10-03T12:44:56;93736.16;;;17.22;62.50
10606;BME280;5350;42.698;23.148;2022-10-03T12:47:30;93738.47;;;17.24;60.70
10606;BME280;5350;42.698;23.148;2022-10-03T12:50:00;93737.31;;;17.13;61.62
10606;BME280;5350;42.698;23.148;2022-10-03T12:52:32;93741.53;;;17.46;56.84
10606;BME280;5350;42.698;23.148;2022-10-03T12:55:07;93749.38;;;17.31;57.38
10606;BME280;5350;42.698;23.148;2022-10-03T12:57:44;93748.56;;;17.51;57.38
10606;BME280;5350;42.698;23.148;2022-10-03T13:00:16;93764.00;;;17.58;57.32
10606;BME280;5350;42.698;23.148;2022-10-03T13:02:46;93757.59;;;17.17;60.70
10606;BME280;5350;42.698;23.148;2022-10-03T13:05:21;93753.34;;;17.04;61.93
10606;BME280;5350;42.698;23.148;2022-10-03T13:07:51;93761.06;;;16.76;62.27
10606;BME280;5350;42.698;23.148;2022-10-03T13:10:22;93747.91;;;16.59;64.27
10606;BME280;5350;42.698;23.148;2022-10-03T13:13:00;93754.19;;;16.96;65.07
10606;BME280;5350;42.698;23.148;2022-10-03T13:15:39;93751.94;;;17.39;61.41
10606;BME280;5350;42.698;23.148;2022-10-03T13:18:17;93754.69;;;17.64;60.22
10606;BME280;5350;42.698;23.148;2022-10-03T13:20:48;93753.03;;;17.59;57.19
10606;BME280;5350;42.698;23.148;2022-10-03T13:23:19;93743.31;;;17.42;58.96
10606;BME280;5350;42.698;23.148;2022-10-03T13:25:50;93739.44;;;17.85;58.12
10606;BME280;5350;42.698;23.148;2022-10-03T13:28:22;93733.38;;;18.32;54.21
10606;BME280;5350;42.698;23.148;2022-10-03T13:30:56;93732.47;;;18.65;55.51
10606;BME280;5350;42.698;23.148;2022-10-03T13:33:27;93727.41;;;19.27;51.88
10606;BME280;5350;42.698;23.148;2022-10-03T13:35:56;93718.78;;;19.18;48.79
10606;BME280;5350;42.698;23.148;2022-10-03T13:38:35;93707.31;;;19.17;48.66
10606;BME280;5350;42.698;23.148;2022-10-03T13:41:12;93704.63;;;19.02;48.37
10606;BME280;5350;42.698;23.148;2022-10-03T13:43:43;93700.75;;;19.27;47.42
10606;BME280;5350;42.698;23.148;2022-10-03T13:46:14;93696.94;;;19.00;48.33
10606;BME280;5350;42.698;23.148;2022-10-03T13:48:44;93704.97;;;18.88;47.85
10606;BME280;5350;42.698;23.148;2022-10-03T13:51:17;93706.25;;;18.79;48.08
10606;BME280;5350;42.698;23.148;2022-10-03T13:53:53;93726.94;;;18.58;47.67
10606;BME280;5350;42.698;23.148;2022-10-03T13:56:29;93722.28;;;18.18;48.32
10606;BME280;5350;42.698;23.148;2022-10-03T13:59:01;93723.13;;;17.86;49.59
10606;BME280;5350;42.698;23.148;2022-10-03T14:01:37;93720.16;;;18.00;50.78
10606;BME280;5350;42.698;23.148;2022-10-03T14:07:00;93733.97;;;17.69;50.88
10606;BME280;5350;42.698;23.148;2022-10-03T14:09:35;93744.75;;;17.73;52.74
10606;BME280;5350;42.698;23.148;2022-10-03T14:12:05;93754.13;;;17.58;51.94
10606;BME280;5350;42.698;23.148;2022-10-03T14:14:39;93741.03;;;17.53;52.42
10606;BME280;5350;42.698;23.148;2022-10-03T14:17:09;93736.38;;;17.50;50.14
10606;BME280;5350;42.698;23.148;2022-10-03T14:19:39;93729.09;;;17.71;50.27
10606;BME280;5350;42.698;23.148;2022-10-03T14:24:58;93728.69;;;17.93;50.27
10606;BME280;5350;42.698;23.148;2022-10-03T14:27:34;93729.88;;;17.60;52.03
10606;BME280;5350;42.698;23.148;2022-10-03T14:30:03;93730.31;;;17.29;50.79
10606;BME280;5350;42.698;23.148;2022-10-03T14:32:35;93727.50;;;16.93;53.24
10606;BME280;5350;42.698;23.148;2022-10-03T14:35:06;93733.38;;;16.57;56.41
10606;BME280;5350;42.698;23.148;2022-10-03T14:37:36;93748.38;;;16.24;58.28
10606;BME280;5350;42.698;23.148;2022-10-03T14:40:11;93728.19;;;16.02;58.14
10606;BME280;5350;42.698;23.148;2022-10-03T14:42:57;93737.22;;;15.72;60.53
10606;BME280;5350;42.698;23.148;2022-10-03T14:45:29;93753.03;;;15.34;65.13
10606;BME280;5350;42.698;23.148;2022-10-03T14:47:59;93768.97;;;14.91;70.49
10606;BME280;5350;42.698;23.148;2022-10-03T14:50:29;93772.22;;;14.71;75.89
10606;BME280;5350;42.698;23.148;2022-10-03T14:52:57;93774.19;;;14.31;83.32
10606;BME280;5350;42.698;23.148;2022-10-03T14:55:29;93746.25;;;14.17;92.25
10606;BME280;5350;42.698;23.148;2022-10-03T14:57:58;93739.41;;;14.07;97.84
10606;BME280;5350;42.698;23.148;2022-10-03T15:00:33;93743.06;;;13.98;100.00
10606;BME280;5350;42.698;23.148;2022-10-03T15:03:12;93740.59;;;13.93;99.59
10606;BME280;5350;42.698;23.148;2022-10-03T15:05:50;93738.16;;;14.13;95.11
10606;BME280;5350;42.698;23.148;2022-10-03T15:08:19;93749.22;;;14.15;92.47
10606;BME280;5350;42.698;23.148;2022-10-03T15:10:47;93737.09;;;14.23;95.69
10606;BME280;5350;42.698;23.148;2022-10-03T15:13:15;93735.75;;;14.34;96.97
10606;BME280;5350;42.698;23.148;2022-10-03T15:15:45;93732.91;;;14.22;94.76
10606;BME280;5350;42.698;23.148;2022-10-03T15:18:13;93732.88;;;14.13;93.81
10606;BME280;5350;42.698;23.148;2022-10-03T15:20:42;93734.72;;;14.13;93.27
10606;BME280;5350;42.698;23.148;2022-10-03T15:23:17;93743.13;;;14.15;93.87
10606;BME280;5350;42.698;23.148;2022-10-03T15:25:44;93752.22;;;14.31;90.99
10606;BME280;5350;42.698;23.148;2022-10-03T15:28:18;93740.38;;;14.20;91.54
10606;BME280;5350;42.698;23.148;2022-10-03T15:30:47;93745.19;;;14.18;93.56
10606;BME280;5350;42.698;23.148;2022-10-03T15:33:16;93750.63;;;14.21;94.50
10606;BME280;5350;42.698;23.148;2022-10-03T15:35:48;93745.38;;;14.30;94.12
10606;BME280;5350;42.698;23.148;2022-10-03T15:38:20;93743.13;;;14.15;96.05
10606;BME280;5350;42.698;23.148;2022-10-03T15:40:51;93742.22;;;14.19;95.05
10606;BME280;5350;42.698;23.148;2022-10-03T15:43:25;93743.13;;;14.15;95.87
10606;BME280;5350;42.698;23.148;2022-10-03T15:45:55;93750.53;;;13.96;97.67
10606;BME280;5350;42.698;23.148;2022-10-03T15:48:22;93740.03;;;13.74;100.00
10606;BME280;5350;42.698;23.148;2022-10-03T15:50:52;93739.16;;;13.47;100.00
10606;BME280;5350;42.698;23.148;2022-10-03T15:53:21;93758.28;;;13.22;98.52
10606;BME280;5350;42.698;23.148;2022-10-03T15:55:49;93750.31;;;13.00;100.00
10606;BME280;5350;42.698;23.148;2022-10-03T15:58:18;93761.72;;;12.87;100.00
10606;BME280;5350;42.698;23.148;2022-10-03T16:00:50;93761.22;;;12.85;100.00
10606;BME280;5350;42.698;23.148;2022-10-03T16:03:21;93769.03;;;12.90;100.00
10606;BME280;5350;42.698;23.148;2022-10-03T16:05:53;93771.38;;;12.92;100.00
10606;BME280;5350;42.698;23.148;2022-10-03T16:08:21;93779.69;;;12.99;100.00
10606;BME280;5350;42.698;23.148;2022-10-03T16:10:55;93786.94;;;12.93;100.00
10606;BME280;5350;42.698;23.148;2022-10-03T16:13:24;93787.63;;;12.85;100.00
10606;BME280;5350;42.698;23.148;2022-10-03T16:16:09;93785.69;;;12.77;100.00
10606;BME280;5350;42.698;23.148;2022-10-03T16:18:45;93785.34;;;12.70;100.00
10606;BME280;5350;42.698;23.148;2022-10-03T16:21:14;93786.59;;;12.72;100.00
10606;BME280;5350;42.698;23.148;2022-10-03T16:23:44;93797.97;;;12.59;100.00
10606;BME280;5350;42.698;23.148;2022-10-03T16:26:11;93791.75;;;12.42;100.00
10606;BME280;5350;42.698;23.148;2022-10-03T16:28:43;93791.34;;;12.48;100.00
10606;BME280;5350;42.698;23.148;2022-10-03T16:31:12;93795.06;;;12.34;100.00